sensor_id;sensor_type;location;lat;lon;timestamp;P1;durP1;ratioP1;P2;durP2;ratioP2
19923;SDS011;10124;53.068;18.224;2022-12-07T00:01:30;24.27;;;14.53;;
19923;SDS011;10124;53.068;18.224;2022-12-07T00:04:03;23.63;;;15.27;;
19923;SDS011;10124;53.068;18.224;2022-12-07T00:06:38;24.77;;;14.53;;
19923;SDS011;10124;53.068;18.224;2022-12-07T00:09:12;26.40;;;15.10;;
19923;SDS011;10124;53.068;18.224;2022-12-07T00:11:41;25.70;;;15.57;;
19923;SDS011;10124;53.068;18.224;2022-12-07T00:14:13;24.10;;;15.27;;
19923;SDS011;10124;53.068;18.224;2022-12-07T00:16:42;24.63;;;15.27;;
19923;SDS011;10124;53.068;18.224;2022-12-07T00:19:11;21.60;;;14.97;;
19923;SDS011;10124;53.068;18.224;2022-12-07T00:21:40;25.87;;;15.13;;
19923;SDS011;10124;53.068;18.224;2022-12-07T00:24:09;31.37;;;16.60;;
19923;SDS011;10124;53.068;18.224;2022-12-07T00:26:38;25.57;;;15.93;;
19923;SDS011;10124;53.068;18.224;2022-12-07T00:29:09;29.33;;;18.03;;
19923;SDS011;10124;53.068;18.224;2022-12-07T00:31:44;25.77;;;15.87;;
19923;SDS011;10124;53.068;18.224;2022-12-07T00:34:14;26.43;;;15.77;;
19923;SDS011;10124;53.068;18.224;2022-12-07T00:36:43;29.00;;;17.40;;
19923;SDS011;10124;53.068;18.224;2022-12-07T00:39:11;35.07;;;15.90;;
19923;SDS011;10124;53.068;18.224;2022-12-07T00:41:39;29.97;;;15.87;;
19923;SDS011;10124;53.068;18.224;2022-12-07T00:44:08;25.83;;;15.50;;
19923;SDS011;10124;53.068;18.224;2022-12-07T00:46:35;26.20;;;14.07;;
19923;SDS011;10124;53.068;18.224;2022-12-07T00:49:04;23.10;;;13.90;;
19923;SDS011;10124;53.068;18.224;2022-12-07T00:51:31;27.93;;;16.73;;
19923;SDS011;10124;53.068;18.224;2022-12-07T00:53:59;23.77;;;15.93;;
19923;SDS011;10124;53.068;18.224;2022-12-07T00:56:28;30.23;;;15.93;;
19923;SDS011;10124;53.068;18.224;2022-12-07T00:58:57;32.67;;;17.73;;
19923;SDS011;10124;53.068;18.224;2022-12-07T01:01:27;32.00;;;16.33;;
19923;SDS011;10124;53.068;18.224;2022-12-07T01:03:57;33.50;;;18.07;;
19923;SDS011;10124;53.068;18.224;2022-12-07T01:06:25;28.40;;;16.07;;
19923;SDS011;10124;53.068;18.224;2022-12-07T01:08:54;32.10;;;18.37;;
19923;SDS011;10124;53.068;18.224;2022-12-07T01:11:22;29.33;;;15.97;;
19923;SDS011;10124;53.068;18.224;2022-12-07T01:13:52;30.07;;;17.03;;
19923;SDS011;10124;53.068;18.224;2022-12-07T01:16:21;27.20;;;16.10;;
19923;SDS011;10124;53.068;18.224;2022-12-07T01:18:51;29.73;;;16.57;;
19923;SDS011;10124;53.068;18.224;2022-12-07T01:21:21;27.43;;;16.60;;
19923;SDS011;10124;53.068;18.224;2022-12-07T01:23:51;26.37;;;16.10;;
19923;SDS011;10124;53.068;18.224;2022-12-07T01:26:20;25.97;;;15.77;;
19923;SDS011;10124;53.068;18.224;2022-12-07T01:28:49;22.10;;;13.27;;
19923;SDS011;10124;53.068;18.224;2022-12-07T01:31:18;25.40;;;14.83;;
19923;SDS011;10124;53.068;18.224;2022-12-07T01:33:48;20.90;;;14.07;;
19923;SDS011;10124;53.068;18.224;2022-12-07T01:36:19;22.23;;;12.77;;
19923;SDS011;10124;53.068;18.224;2022-12-07T01:38:48;17.77;;;12.60;;
19923;SDS011;10124;53.068;18.224;2022-12-07T01:41:19;23.83;;;14.87;;
19923;SDS011;10124;53.068;18.224;2022-12-07T01:46:47;32.70;;;16.03;;
19923;SDS011;10124;53.068;18.224;2022-12-07T01:49:35;20.77;;;13.47;;
19923;SDS011;10124;53.068;18.224;2022-12-07T01:52:13;19.57;;;12.60;;
19923;SDS011;10124;53.068;18.224;2022-12-07T01:55:12;21.27;;;14.03;;
19923;SDS011;10124;53.068;18.224;2022-12-07T01:57:43;17.80;;;13.00;;
19923;SDS011;10124;53.068;18.224;2022-12-07T02:00:15;17.77;;;11.93;;
19923;SDS011;10124;53.068;18.224;2022-12-07T02:02:48;20.30;;;12.60;;
19923;SDS011;10124;53.068;18.224;2022-12-07T02:05:21;19.87;;;12.33;;
19923;SDS011;10124;53.068;18.224;2022-12-07T02:07:51;24.27;;;13.13;;
19923;SDS011;10124;53.068;18.224;2022-12-07T02:10:23;17.93;;;11.83;;
19923;SDS011;10124;53.068;18.224;2022-12-07T02:12:53;20.37;;;12.50;;
19923;SDS011;10124;53.068;18.224;2022-12-07T02:18:46;21.13;;;13.10;;
19923;SDS011;10124;53.068;18.224;2022-12-07T02:32:03;17.90;;;11.70;;
19923;SDS011;10124;53.068;18.224;2022-12-07T02:34:50;19.90;;;12.77;;
19923;SDS011;10124;53.068;18.224;2022-12-07T02:40:22;20.67;;;11.80;;
19923;SDS011;10124;53.068;18.224;2022-12-07T02:43:01;19.77;;;12.73;;
19923;SDS011;10124;53.068;18.224;2022-12-07T02:45:34;16.17;;;11.00;;
19923;SDS011;10124;53.068;18.224;2022-12-07T02:48:05;22.57;;;12.10;;
19923;SDS011;10124;53.068;18.224;2022-12-07T02:50:33;18.47;;;12.23;;
19923;SDS011;10124;53.068;18.224;2022-12-07T02:53:02;16.80;;;11.47;;
19923;SDS011;10124;53.068;18.224;2022-12-07T02:55:31;21.73;;;13.27;;
19923;SDS011;10124;53.068;18.224;2022-12-07T03:00:54;26.87;;;14.20;;
19923;SDS011;10124;53.068;18.224;2022-12-07T03:03:36;25.67;;;14.93;;
19923;SDS011;10124;53.068;18.224;2022-12-07T03:06:16;22.13;;;15.20;;
19923;SDS011;10124;53.068;18.224;2022-12-07T03:09:13;26.27;;;16.63;;
19923;SDS011;10124;53.068;18.224;2022-12-07T03:11:48;34.23;;;18.90;;
19923;SDS011;10124;53.068;18.224;2022-12-07T03:14:29;32.50;;;16.40;;
19923;SDS011;10124;53.068;18.224;2022-12-07T03:17:03;36.97;;;18.73;;
19923;SDS011;10124;53.068;18.224;2022-12-07T03:19:40;39.80;;;20.27;;
19923;SDS011;10124;53.068;18.224;2022-12-07T03:22:10;32.57;;;19.07;;
19923;SDS011;10124;53.068;18.224;2022-12-07T03:24:50;44.33;;;20.73;;
19923;SDS011;10124;53.068;18.224;2022-12-07T03:29:56;39.17;;;22.80;;
19923;SDS011;10124;53.068;18.224;2022-12-07T03:35:09;41.27;;;23.70;;
19923;SDS011;10124;53.068;18.224;2022-12-07T03:37:50;35.97;;;21.60;;
19923;SDS011;10124;53.068;18.224;2022-12-07T03:42:59;38.13;;;21.63;;
19923;SDS011;10124;53.068;18.224;2022-12-07T03:45:34;32.90;;;20.37;;
19923;SDS011;10124;53.068;18.224;2022-12-07T03:48:07;32.60;;;19.77;;
19923;SDS011;10124;53.068;18.224;2022-12-07T03:51:13;33.07;;;18.13;;
19923;SDS011;10124;53.068;18.224;2022-12-07T03:54:02;25.87;;;17.33;;
19923;SDS011;10124;53.068;18.224;2022-12-07T03:56:51;31.63;;;17.73;;
19923;SDS011;10124;53.068;18.224;2022-12-07T03:59:19;24.97;;;16.73;;
19923;SDS011;10124;53.068;18.224;2022-12-07T04:01:52;29.40;;;19.07;;
19923;SDS011;10124;53.068;18.224;2022-12-07T04:04:25;25.03;;;16.00;;
19923;SDS011;10124;53.068;18.224;2022-12-07T04:06:53;25.87;;;17.50;;
19923;SDS011;10124;53.068;18.224;2022-12-07T04:09:20;25.97;;;17.60;;
19923;SDS011;10124;53.068;18.224;2022-12-07T04:11:48;22.07;;;15.90;;
19923;SDS011;10124;53.068;18.224;2022-12-07T04:14:16;26.50;;;16.83;;
19923;SDS011;10124;53.068;18.224;2022-12-07T04:16:54;23.77;;;14.93;;
19923;SDS011;10124;53.068;18.224;2022-12-07T04:19:27;23.03;;;15.77;;
19923;SDS011;10124;53.068;18.224;2022-12-07T04:21:57;22.07;;;15.13;;
19923;SDS011;10124;53.068;18.224;2022-12-07T04:24:25;26.57;;;16.17;;
19923;SDS011;10124;53.068;18.224;2022-12-07T04:26:53;19.13;;;13.73;;
19923;SDS011;10124;53.068;18.224;2022-12-07T04:29:21;19.33;;;14.00;;
19923;SDS011;10124;53.068;18.224;2022-12-07T04:31:49;18.63;;;14.13;;
19923;SDS011;10124;53.068;18.224;2022-12-07T04:34:17;16.33;;;12.67;;
19923;SDS011;10124;53.068;18.224;2022-12-07T04:36:46;18.83;;;13.97;;
19923;SDS011;10124;53.068;18.224;2022-12-07T04:39:20;20.37;;;14.17;;
19923;SDS011;10124;53.068;18.224;2022-12-07T04:41:50;17.40;;;12.47;;
19923;SDS011;10124;53.068;18.224;2022-12-07T04:44:18;21.73;;;15.23;;
19923;SDS011;10124;53.068;18.224;2022-12-07T04:46:46;17.43;;;13.60;;
19923;SDS011;10124;53.068;18.224;2022-12-07T04:49:14;21.23;;;14.60;;
19923;SDS011;10124;53.068;18.224;2022-12-07T04:51:42;23.53;;;16.07;;
19923;SDS011;10124;53.068;18.224;2022-12-07T04:54:11;18.30;;;12.70;;
19923;SDS011;10124;53.068;18.224;2022-12-07T04:56:40;18.83;;;13.40;;
19923;SDS011;10124;53.068;18.224;2022-12-07T04:59:08;19.53;;;12.27;;
19923;SDS011;10124;53.068;18.224;2022-12-07T05:01:37;17.37;;;12.23;;
19923;SDS011;10124;53.068;18.224;2022-12-07T05:04:05;15.67;;;11.73;;
19923;SDS011;10124;53.068;18.224;2022-12-07T05:06:33;19.73;;;13.90;;
19923;SDS011;10124;53.068;18.224;2022-12-07T05:09:01;16.33;;;12.13;;
19923;SDS011;10124;53.068;18.224;2022-12-07T05:11:30;14.63;;;11.57;;
19923;SDS011;10124;53.068;18.224;2022-12-07T05:14:12;16.07;;;11.33;;
19923;SDS011;10124;53.068;18.224;2022-12-07T05:16:42;15.77;;;11.23;;
19923;SDS011;10124;53.068;18.224;2022-12-07T05:19:10;15.70;;;11.67;;
19923;SDS011;10124;53.068;18.224;2022-12-07T05:21:39;14.43;;;11.07;;
19923;SDS011;10124;53.068;18.224;2022-12-07T05:24:07;13.80;;;10.90;;
19923;SDS011;10124;53.068;18.224;2022-12-07T05:26:38;23.10;;;14.77;;
19923;SDS011;10124;53.068;18.224;2022-12-07T05:29:05;16.83;;;11.57;;
19923;SDS011;10124;53.068;18.224;2022-12-07T05:31:33;16.27;;;10.77;;
19923;SDS011;10124;53.068;18.224;2022-12-07T05:34:01;14.90;;;11.27;;
19923;SDS011;10124;53.068;18.224;2022-12-07T05:36:29;12.73;;;9.33;;
19923;SDS011;10124;53.068;18.224;2022-12-07T05:38:58;15.00;;;11.30;;
19923;SDS011;10124;53.068;18.224;2022-12-07T05:41:26;12.60;;;10.10;;
19923;SDS011;10124;53.068;18.224;2022-12-07T05:44:12;15.73;;;9.93;;
19923;SDS011;10124;53.068;18.224;2022-12-07T05:46:40;14.20;;;9.80;;
19923;SDS011;10124;53.068;18.224;2022-12-07T05:49:07;12.77;;;8.90;;
19923;SDS011;10124;53.068;18.224;2022-12-07T05:51:35;14.73;;;9.17;;
19923;SDS011;10124;53.068;18.224;2022-12-07T05:54:03;13.70;;;9.37;;
19923;SDS011;10124;53.068;18.224;2022-12-07T05:56:30;13.10;;;9.77;;
19923;SDS011;10124;53.068;18.224;2022-12-07T05:58:58;15.50;;;9.10;;
19923;SDS011;10124;53.068;18.224;2022-12-07T06:01:44;14.37;;;10.00;;
19923;SDS011;10124;53.068;18.224;2022-12-07T06:04:11;19.10;;;11.03;;
19923;SDS011;10124;53.068;18.224;2022-12-07T06:06:39;16.97;;;10.70;;
19923;SDS011;10124;53.068;18.224;2022-12-07T06:09:06;21.33;;;11.93;;
19923;SDS011;10124;53.068;18.224;2022-12-07T06:11:34;21.73;;;12.27;;
19923;SDS011;10124;53.068;18.224;2022-12-07T06:14:20;21.70;;;11.97;;
19923;SDS011;10124;53.068;18.224;2022-12-07T06:16:47;23.53;;;13.37;;
19923;SDS011;10124;53.068;18.224;2022-12-07T06:19:15;20.63;;;13.40;;
19923;SDS011;10124;53.068;18.224;2022-12-07T06:21:43;25.47;;;14.87;;
19923;SDS011;10124;53.068;18.224;2022-12-07T06:24:13;22.70;;;13.63;;
19923;SDS011;10124;53.068;18.224;2022-12-07T06:26:42;23.57;;;13.43;;
19923;SDS011;10124;53.068;18.224;2022-12-07T06:29:10;33.60;;;14.70;;
19923;SDS011;10124;53.068;18.224;2022-12-07T06:31:39;28.20;;;14.53;;
19923;SDS011;10124;53.068;18.224;2022-12-07T06:34:08;26.00;;;13.07;;
19923;SDS011;10124;53.068;18.224;2022-12-07T06:36:38;25.50;;;14.17;;
19923;SDS011;10124;53.068;18.224;2022-12-07T06:39:06;26.40;;;15.97;;
19923;SDS011;10124;53.068;18.224;2022-12-07T06:41:36;25.20;;;15.07;;
19923;SDS011;10124;53.068;18.224;2022-12-07T06:44:04;27.90;;;15.17;;
19923;SDS011;10124;53.068;18.224;2022-12-07T06:46:33;26.43;;;15.23;;
19923;SDS011;10124;53.068;18.224;2022-12-07T06:49:02;26.23;;;14.87;;
19923;SDS011;10124;53.068;18.224;2022-12-07T06:51:32;35.37;;;15.90;;
19923;SDS011;10124;53.068;18.224;2022-12-07T06:53:59;37.77;;;21.07;;
19923;SDS011;10124;53.068;18.224;2022-12-07T06:56:27;39.10;;;21.93;;
19923;SDS011;10124;53.068;18.224;2022-12-07T06:58:55;37.77;;;20.33;;
19923;SDS011;10124;53.068;18.224;2022-12-07T07:01:23;35.07;;;19.20;;
19923;SDS011;10124;53.068;18.224;2022-12-07T07:03:51;35.17;;;19.50;;
19923;SDS011;10124;53.068;18.224;2022-12-07T07:06:19;32.90;;;18.73;;
19923;SDS011;10124;53.068;18.224;2022-12-07T07:08:46;43.90;;;21.10;;
19923;SDS011;10124;53.068;18.224;2022-12-07T07:11:14;35.43;;;21.87;;
19923;SDS011;10124;53.068;18.224;2022-12-07T07:13:41;45.87;;;24.03;;
19923;SDS011;10124;53.068;18.224;2022-12-07T07:16:09;47.10;;;23.10;;
19923;SDS011;10124;53.068;18.224;2022-12-07T07:18:37;47.67;;;23.73;;
19923;SDS011;10124;53.068;18.224;2022-12-07T07:21:05;38.27;;;23.20;;
19923;SDS011;10124;53.068;18.224;2022-12-07T07:23:33;42.20;;;23.07;;
19923;SDS011;10124;53.068;18.224;2022-12-07T07:26:00;46.00;;;23.47;;
19923;SDS011;10124;53.068;18.224;2022-12-07T07:28:28;49.23;;;23.47;;
19923;SDS011;10124;53.068;18.224;2022-12-07T07:30:56;42.33;;;23.37;;
19923;SDS011;10124;53.068;18.224;2022-12-07T07:33:23;62.87;;;34.80;;
19923;SDS011;10124;53.068;18.224;2022-12-07T07:35:51;55.20;;;29.17;;
19923;SDS011;10124;53.068;18.224;2022-12-07T07:38:18;55.60;;;28.63;;
19923;SDS011;10124;53.068;18.224;2022-12-07T07:40:46;48.87;;;27.37;;
19923;SDS011;10124;53.068;18.224;2022-12-07T07:43:13;52.50;;;26.13;;
19923;SDS011;10124;53.068;18.224;2022-12-07T07:45:41;42.83;;;24.03;;
19923;SDS011;10124;53.068;18.224;2022-12-07T07:48:09;41.40;;;24.13;;
19923;SDS011;10124;53.068;18.224;2022-12-07T07:50:37;72.67;;;39.23;;
19923;SDS011;10124;53.068;18.224;2022-12-07T07:53:04;80.37;;;43.03;;
19923;SDS011;10124;53.068;18.224;2022-12-07T07:55:32;50.50;;;29.63;;
19923;SDS011;10124;53.068;18.224;2022-12-07T07:58:00;38.60;;;22.87;;
19923;SDS011;10124;53.068;18.224;2022-12-07T08:00:29;34.60;;;21.17;;
19923;SDS011;10124;53.068;18.224;2022-12-07T08:02:56;35.97;;;21.43;;
19923;SDS011;10124;53.068;18.224;2022-12-07T08:05:24;37.17;;;21.43;;
19923;SDS011;10124;53.068;18.224;2022-12-07T08:07:52;37.83;;;19.53;;
19923;SDS011;10124;53.068;18.224;2022-12-07T08:10:20;40.90;;;24.63;;
19923;SDS011;10124;53.068;18.224;2022-12-07T08:12:47;37.73;;;22.60;;
19923;SDS011;10124;53.068;18.224;2022-12-07T08:15:36;37.47;;;22.20;;
19923;SDS011;10124;53.068;18.224;2022-12-07T08:18:04;30.57;;;20.27;;
19923;SDS011;10124;53.068;18.224;2022-12-07T08:20:33;28.23;;;18.73;;
19923;SDS011;10124;53.068;18.224;2022-12-07T08:23:02;30.60;;;20.17;;
19923;SDS011;10124;53.068;18.224;2022-12-07T08:25:30;32.00;;;18.57;;
19923;SDS011;10124;53.068;18.224;2022-12-07T08:27:58;29.63;;;18.83;;
19923;SDS011;10124;53.068;18.224;2022-12-07T08:30:28;30.90;;;18.00;;
19923;SDS011;10124;53.068;18.224;2022-12-07T08:32:56;29.77;;;18.80;;
19923;SDS011;10124;53.068;18.224;2022-12-07T08:35:24;28.70;;;19.13;;
19923;SDS011;10124;53.068;18.224;2022-12-07T08:37:52;28.67;;;18.60;;
19923;SDS011;10124;53.068;18.224;2022-12-07T08:40:20;25.83;;;17.70;;
19923;SDS011;10124;53.068;18.224;2022-12-07T08:42:48;25.63;;;16.83;;
19923;SDS011;10124;53.068;18.224;2022-12-07T08:45:17;26.70;;;17.07;;
19923;SDS011;10124;53.068;18.224;2022-12-07T08:48:00;26.57;;;18.17;;
19923;SDS011;10124;53.068;18.224;2022-12-07T08:50:33;24.23;;;16.03;;
19923;SDS011;10124;53.068;18.224;2022-12-07T08:53:02;23.40;;;17.33;;
19923;SDS011;10124;53.068;18.224;2022-12-07T08:55:32;29.50;;;18.57;;
19923;SDS011;10124;53.068;18.224;2022-12-07T08:58:01;28.03;;;18.17;;
19923;SDS011;10124;53.068;18.224;2022-12-07T09:00:30;25.83;;;18.67;;
19923;SDS011;10124;53.068;18.224;2022-12-07T09:02:58;23.60;;;16.87;;
19923;SDS011;10124;53.068;18.224;2022-12-07T09:05:26;27.20;;;18.77;;
19923;SDS011;10124;53.068;18.224;2022-12-07T09:07:56;25.10;;;17.40;;
19923;SDS011;10124;53.068;18.224;2022-12-07T09:10:27;26.40;;;17.03;;
19923;SDS011;10124;53.068;18.224;2022-12-07T09:12:55;26.33;;;17.83;;
19923;SDS011;10124;53.068;18.224;2022-12-07T09:15:28;23.50;;;16.53;;
19923;SDS011;10124;53.068;18.224;2022-12-07T09:17:56;26.27;;;17.63;;
19923;SDS011;10124;53.068;18.224;2022-12-07T09:20:24;23.37;;;17.03;;
19923;SDS011;10124;53.068;18.224;2022-12-07T09:22:54;25.60;;;17.57;;
19923;SDS011;10124;53.068;18.224;2022-12-07T09:25:21;20.07;;;15.23;;
19923;SDS011;10124;53.068;18.224;2022-12-07T09:27:54;20.23;;;14.43;;
19923;SDS011;10124;53.068;18.224;2022-12-07T09:30:24;21.83;;;16.37;;
19923;SDS011;10124;53.068;18.224;2022-12-07T09:32:53;22.33;;;15.40;;
19923;SDS011;10124;53.068;18.224;2022-12-07T09:35:23;19.07;;;13.03;;
19923;SDS011;10124;53.068;18.224;2022-12-07T09:37:51;19.33;;;13.23;;
19923;SDS011;10124;53.068;18.224;2022-12-07T09:40:19;18.53;;;13.37;;
19923;SDS011;10124;53.068;18.224;2022-12-07T09:42:49;17.90;;;13.80;;
19923;SDS011;10124;53.068;18.224;2022-12-07T09:45:24;17.33;;;12.77;;
19923;SDS011;10124;53.068;18.224;2022-12-07T09:47:55;17.63;;;12.83;;
19923;SDS011;10124;53.068;18.224;2022-12-07T09:50:26;19.43;;;13.83;;
19923;SDS011;10124;53.068;18.224;2022-12-07T09:53:07;16.73;;;13.00;;
19923;SDS011;10124;53.068;18.224;2022-12-07T09:55:39;21.60;;;14.70;;
19923;SDS011;10124;53.068;18.224;2022-12-07T09:58:19;18.37;;;14.27;;
19923;SDS011;10124;53.068;18.224;2022-12-07T10:00:59;19.33;;;14.00;;
19923;SDS011;10124;53.068;18.224;2022-12-07T10:03:49;19.03;;;14.30;;
19923;SDS011;10124;53.068;18.224;2022-12-07T10:06:18;18.70;;;13.90;;
19923;SDS011;10124;53.068;18.224;2022-12-07T10:08:47;20.50;;;14.40;;
19923;SDS011;10124;53.068;18.224;2022-12-07T10:11:14;21.63;;;15.13;;
19923;SDS011;10124;53.068;18.224;2022-12-07T10:13:44;20.40;;;15.40;;
19923;SDS011;10124;53.068;18.224;2022-12-07T10:18:53;19.33;;;15.20;;
19923;SDS011;10124;53.068;18.224;2022-12-07T10:21:25;19.53;;;14.53;;
19923;SDS011;10124;53.068;18.224;2022-12-07T10:26:31;20.23;;;15.53;;
19923;SDS011;10124;53.068;18.224;2022-12-07T10:29:13;18.87;;;14.50;;
19923;SDS011;10124;53.068;18.224;2022-12-07T10:34:40;20.23;;;14.77;;
19923;SDS011;10124;53.068;18.224;2022-12-07T10:37:17;18.63;;;14.70;;
19923;SDS011;10124;53.068;18.224;2022-12-07T10:42:22;16.97;;;13.53;;
19923;SDS011;10124;53.068;18.224;2022-12-07T10:45:07;20.30;;;15.87;;
19923;SDS011;10124;53.068;18.224;2022-12-07T10:47:52;19.53;;;15.60;;
19923;SDS011;10124;53.068;18.224;2022-12-07T10:59:32;20.00;;;14.97;;
19923;SDS011;10124;53.068;18.224;2022-12-07T11:15:53;20.53;;;15.27;;
19923;SDS011;10124;53.068;18.224;2022-12-07T11:21:56;19.33;;;14.43;;
19923;SDS011;10124;53.068;18.224;2022-12-07T11:24:32;20.17;;;15.03;;
19923;SDS011;10124;53.068;18.224;2022-12-07T11:35:05;20.03;;;14.57;;
19923;SDS011;10124;53.068;18.224;2022-12-07T11:37:41;20.63;;;14.70;;
19923;SDS011;10124;53.068;18.224;2022-12-07T11:40:30;22.03;;;16.07;;
19923;SDS011;10124;53.068;18.224;2022-12-07T11:45:46;23.63;;;17.83;;
19923;SDS011;10124;53.068;18.224;2022-12-07T11:48:22;23.27;;;17.37;;
19923;SDS011;10124;53.068;18.224;2022-12-07T11:51:05;23.53;;;17.43;;
19923;SDS011;10124;53.068;18.224;2022-12-07T11:53:38;23.93;;;15.90;;
19923;SDS011;10124;53.068;18.224;2022-12-07T11:56:12;20.73;;;16.70;;
19923;SDS011;10124;53.068;18.224;2022-12-07T12:03:45;23.20;;;16.40;;
19923;SDS011;10124;53.068;18.224;2022-12-07T12:06:31;24.97;;;16.60;;
19923;SDS011;10124;53.068;18.224;2022-12-07T12:09:04;21.63;;;16.33;;
19923;SDS011;10124;53.068;18.224;2022-12-07T12:12:18;19.80;;;15.50;;
19923;SDS011;10124;53.068;18.224;2022-12-07T12:21:06;19.37;;;15.80;;
19923;SDS011;10124;53.068;18.224;2022-12-07T12:26:14;23.37;;;16.83;;
19923;SDS011;10124;53.068;18.224;2022-12-07T12:29:03;18.87;;;13.57;;
19923;SDS011;10124;53.068;18.224;2022-12-07T12:31:47;21.67;;;15.93;;
19923;SDS011;10124;53.068;18.224;2022-12-07T12:34:38;21.73;;;15.47;;
19923;SDS011;10124;53.068;18.224;2022-12-07T12:42:55;21.20;;;15.70;;
19923;SDS011;10124;53.068;18.224;2022-12-07T12:45:27;24.43;;;15.37;;
19923;SDS011;10124;53.068;18.224;2022-12-07T12:50:41;22.57;;;16.10;;
19923;SDS011;10124;53.068;18.224;2022-12-07T12:53:14;22.30;;;16.80;;
19923;SDS011;10124;53.068;18.224;2022-12-07T12:55:50;21.87;;;14.63;;
19923;SDS011;10124;53.068;18.224;2022-12-07T12:58:39;24.00;;;17.07;;
19923;SDS011;10124;53.068;18.224;2022-12-07T13:03:54;24.17;;;16.20;;
19923;SDS011;10124;53.068;18.224;2022-12-07T13:08:54;22.03;;;16.10;;
19923;SDS011;10124;53.068;18.224;2022-12-07T13:14:35;22.87;;;16.53;;
19923;SDS011;10124;53.068;18.224;2022-12-07T13:17:00;24.47;;;17.13;;
19923;SDS011;10124;53.068;18.224;2022-12-07T13:22:53;28.83;;;17.80;;
19923;SDS011;10124;53.068;18.224;2022-12-07T13:27:48;25.90;;;19.30;;
19923;SDS011;10124;53.068;18.224;2022-12-07T13:30:27;25.87;;;18.53;;
19923;SDS011;10124;53.068;18.224;2022-12-07T13:32:57;25.07;;;17.53;;
19923;SDS011;10124;53.068;18.224;2022-12-07T13:35:33;21.23;;;15.90;;
19923;SDS011;10124;53.068;18.224;2022-12-07T13:38:05;26.23;;;18.43;;
19923;SDS011;10124;53.068;18.224;2022-12-07T13:40:58;22.57;;;17.13;;
19923;SDS011;10124;53.068;18.224;2022-12-07T13:43:48;24.93;;;16.80;;
19923;SDS011;10124;53.068;18.224;2022-12-07T13:46:19;27.03;;;18.97;;
19923;SDS011;10124;53.068;18.224;2022-12-07T13:48:52;26.23;;;19.07;;
19923;SDS011;10124;53.068;18.224;2022-12-07T13:51:26;26.40;;;18.87;;
19923;SDS011;10124;53.068;18.224;2022-12-07T13:53:56;28.17;;;19.10;;
19923;SDS011;10124;53.068;18.224;2022-12-07T13:56:31;33.83;;;21.17;;
19923;SDS011;10124;53.068;18.224;2022-12-07T13:59:01;31.40;;;20.83;;
19923;SDS011;10124;53.068;18.224;2022-12-07T14:01:32;43.10;;;26.83;;
19923;SDS011;10124;53.068;18.224;2022-12-07T14:04:16;29.00;;;19.47;;
19923;SDS011;10124;53.068;18.224;2022-12-07T14:06:49;43.83;;;25.97;;
19923;SDS011;10124;53.068;18.224;2022-12-07T14:09:22;36.80;;;23.03;;
19923;SDS011;10124;53.068;18.224;2022-12-07T14:11:52;36.83;;;23.60;;
19923;SDS011;10124;53.068;18.224;2022-12-07T14:14:22;31.47;;;22.30;;
19923;SDS011;10124;53.068;18.224;2022-12-07T14:17:11;30.97;;;22.13;;
19923;SDS011;10124;53.068;18.224;2022-12-07T14:22:25;29.80;;;19.80;;
19923;SDS011;10124;53.068;18.224;2022-12-07T14:25:17;31.43;;;21.77;;
19923;SDS011;10124;53.068;18.224;2022-12-07T14:27:55;28.63;;;21.43;;
19923;SDS011;10124;53.068;18.224;2022-12-07T14:30:27;31.80;;;21.13;;
19923;SDS011;10124;53.068;18.224;2022-12-07T14:33:04;29.43;;;20.23;;
19923;SDS011;10124;53.068;18.224;2022-12-07T14:35:32;42.07;;;25.83;;
19923;SDS011;10124;53.068;18.224;2022-12-07T14:38:00;43.93;;;26.73;;
19923;SDS011;10124;53.068;18.224;2022-12-07T14:40:28;46.60;;;24.20;;
19923;SDS011;10124;53.068;18.224;2022-12-07T14:42:57;41.43;;;27.17;;
19923;SDS011;10124;53.068;18.224;2022-12-07T14:45:46;45.07;;;29.97;;
19923;SDS011;10124;53.068;18.224;2022-12-07T14:48:14;32.57;;;22.27;;
19923;SDS011;10124;53.068;18.224;2022-12-07T14:51:02;39.10;;;27.20;;
19923;SDS011;10124;53.068;18.224;2022-12-07T14:53:51;54.63;;;34.90;;
19923;SDS011;10124;53.068;18.224;2022-12-07T14:56:26;47.30;;;31.43;;
19923;SDS011;10124;53.068;18.224;2022-12-07T14:58:54;45.50;;;30.87;;
19923;SDS011;10124;53.068;18.224;2022-12-07T15:01:22;39.90;;;27.17;;
19923;SDS011;10124;53.068;18.224;2022-12-07T15:03:50;32.70;;;22.60;;
19923;SDS011;10124;53.068;18.224;2022-12-07T15:06:18;31.53;;;21.83;;
19923;SDS011;10124;53.068;18.224;2022-12-07T15:08:46;32.07;;;22.17;;
19923;SDS011;10124;53.068;18.224;2022-12-07T15:11:14;35.27;;;22.73;;
19923;SDS011;10124;53.068;18.224;2022-12-07T15:13:43;33.20;;;22.40;;
19923;SDS011;10124;53.068;18.224;2022-12-07T15:16:29;34.17;;;23.37;;
19923;SDS011;10124;53.068;18.224;2022-12-07T15:19:18;31.50;;;21.00;;
19923;SDS011;10124;53.068;18.224;2022-12-07T15:21:57;26.83;;;19.40;;
19923;SDS011;10124;53.068;18.224;2022-12-07T15:24:25;34.10;;;21.83;;
19923;SDS011;10124;53.068;18.224;2022-12-07T15:26:53;26.03;;;18.10;;
19923;SDS011;10124;53.068;18.224;2022-12-07T15:29:21;30.00;;;20.43;;
19923;SDS011;10124;53.068;18.224;2022-12-07T15:31:53;24.13;;;18.13;;
19923;SDS011;10124;53.068;18.224;2022-12-07T15:34:24;26.83;;;19.23;;
19923;SDS011;10124;53.068;18.224;2022-12-07T15:37:01;24.97;;;18.67;;
19923;SDS011;10124;53.068;18.224;2022-12-07T15:39:29;23.80;;;18.20;;
19923;SDS011;10124;53.068;18.224;2022-12-07T15:41:57;21.20;;;16.10;;
19923;SDS011;10124;53.068;18.224;2022-12-07T15:44:25;25.67;;;18.87;;
19923;SDS011;10124;53.068;18.224;2022-12-07T15:47:14;25.00;;;19.37;;
19923;SDS011;10124;53.068;18.224;2022-12-07T15:49:42;31.83;;;20.63;;
19923;SDS011;10124;53.068;18.224;2022-12-07T15:52:10;32.90;;;23.27;;
19923;SDS011;10124;53.068;18.224;2022-12-07T15:54:37;41.50;;;27.20;;
19923;SDS011;10124;53.068;18.224;2022-12-07T15:57:05;37.13;;;25.93;;
19923;SDS011;10124;53.068;18.224;2022-12-07T15:59:32;34.53;;;24.50;;
19923;SDS011;10124;53.068;18.224;2022-12-07T16:02:00;43.63;;;28.80;;
19923;SDS011;10124;53.068;18.224;2022-12-07T16:04:28;36.70;;;24.10;;
19923;SDS011;10124;53.068;18.224;2022-12-07T16:06:58;38.60;;;26.40;;
19923;SDS011;10124;53.068;18.224;2022-12-07T16:09:26;29.13;;;21.10;;
19923;SDS011;10124;53.068;18.224;2022-12-07T16:11:53;30.17;;;21.53;;
19923;SDS011;10124;53.068;18.224;2022-12-07T16:14:21;30.70;;;21.27;;
19923;SDS011;10124;53.068;18.224;2022-12-07T16:16:49;33.77;;;22.80;;
19923;SDS011;10124;53.068;18.224;2022-12-07T16:19:17;37.87;;;24.93;;
19923;SDS011;10124;53.068;18.224;2022-12-07T16:21:44;34.77;;;21.97;;
19923;SDS011;10124;53.068;18.224;2022-12-07T16:24:12;43.77;;;27.87;;
19923;SDS011;10124;53.068;18.224;2022-12-07T16:26:42;34.37;;;22.53;;
19923;SDS011;10124;53.068;18.224;2022-12-07T16:29:17;28.07;;;18.37;;
19923;SDS011;10124;53.068;18.224;2022-12-07T16:31:46;28.57;;;18.13;;
19923;SDS011;10124;53.068;18.224;2022-12-07T16:34:15;28.13;;;18.73;;